sensor_id;sensor_type;location;lat;lon;timestamp;pressure;altitude;pressure_sealevel;temperature;humidity
32081;BME280;18593;51.426;7.030;2023-03-18T00:00:32;99826.78;;;13.02;59.78
32081;BME280;18593;51.426;7.030;2023-03-18T00:02:59;99827.84;;;13.01;59.75
32081;BME280;18593;51.426;7.030;2023-03-18T00:05:27;99824.34;;;13.01;59.45
32081;BME280;18593;51.426;7.030;2023-03-18T00:07:54;99819.00;;;13.01;60.02
32081;BME280;18593;51.426;7.030;2023-03-18T00:10:23;99824.34;;;13.01;59.91
32081;BME280;18593;51.426;7.030;2023-03-18T00:12:50;99811.22;;;12.99;59.57
32081;BME280;18593;51.426;7.030;2023-03-18T00:15:19;99812.03;;;13.00;60.08
32081;BME280;18593;51.426;7.030;2023-03-18T00:17:46;99815.78;;;12.99;59.91
32081;BME280;18593;51.426;7.030;2023-03-18T00:20:15;99812.03;;;13.00;59.61
32081;BME280;18593;51.426;7.030;2023-03-18T00:22:43;99818.19;;;13.00;59.39
32081;BME280;18593;51.426;7.030;2023-03-18T00:25:13;99820.63;;;13.02;59.15
32081;BME280;18593;51.426;7.030;2023-03-18T00:27:42;99825.16;;;13.01;59.12
32081;BME280;18593;51.426;7.030;2023-03-18T00:30:11;99824.34;;;13.01;59.47
32081;BME280;18593;51.426;7.030;2023-03-18T00:32:38;99825.41;;;13.00;59.27
32081;BME280;18593;51.426;7.030;2023-03-18T00:35:06;99833.44;;;13.00;59.10
32081;BME280;18593;51.426;7.030;2023-03-18T00:37:34;99831.81;;;12.99;59.31
32081;BME280;18593;51.426;7.030;2023-03-18T00:40:07;99834.50;;;12.99;59.80
32081;BME280;18593;51.426;7.030;2023-03-18T00:42:38;99832.84;;;12.98;59.62
32081;BME280;18593;51.426;7.030;2023-03-18T00:45:15;99845.22;;;12.99;59.72
32081;BME280;18593;51.426;7.030;2023-03-18T00:47:43;99834.72;;;12.97;59.74
32081;BME280;18593;51.426;7.030;2023-03-18T00:50:13;99828.56;;;12.97;59.38
32081;BME280;18593;51.426;7.030;2023-03-18T00:52:40;99822.41;;;12.96;59.38
32081;BME280;18593;51.426;7.030;2023-03-18T00:55:08;99825.88;;;12.97;59.34
32081;BME280;18593;51.426;7.030;2023-03-18T00:57:36;99820.53;;;12.97;59.30
32081;BME280;18593;51.426;7.030;2023-03-18T01:00:05;99822.41;;;12.96;59.71
32081;BME280;18593;51.426;7.030;2023-03-18T01:02:34;99824.03;;;12.97;59.07
32081;BME280;18593;51.426;7.030;2023-03-18T01:05:01;99820.78;;;12.95;59.29
32081;BME280;18593;51.426;7.030;2023-03-18T01:07:29;99818.91;;;12.96;59.18
32081;BME280;18593;51.426;7.030;2023-03-18T01:09:56;99824.53;;;12.94;59.62
32081;BME280;18593;51.426;7.030;2023-03-18T01:12:23;99808.47;;;12.94;59.25
32081;BME280;18593;51.426;7.030;2023-03-18T01:14:51;99821.03;;;12.94;59.18
32081;BME280;18593;51.426;7.030;2023-03-18T01:17:18;99821.03;;;12.94;59.24
32081;BME280;18593;51.426;7.030;2023-03-18T01:19:47;99830.34;;;12.91;59.41
32081;BME280;18593;51.426;7.030;2023-03-18T01:22:15;99832.47;;;12.89;59.47
32081;BME280;18593;51.426;7.030;2023-03-18T01:24:45;99837.00;;;12.88;59.80
32081;BME280;18593;51.426;7.030;2023-03-18T01:27:13;99832.13;;;12.85;59.63
32081;BME280;18593;51.426;7.030;2023-03-18T01:29:43;99840.16;;;12.85;59.77
32081;BME280;18593;51.426;7.030;2023-03-18T01:32:16;99834.00;;;12.85;59.45
32081;BME280;18593;51.426;7.030;2023-03-18T01:34:43;99835.88;;;12.84;59.98
32081;BME280;18593;51.426;7.030;2023-03-18T01:37:12;99830.72;;;12.83;59.83
32081;BME280;18593;51.426;7.030;2023-03-18T01:39:42;99828.06;;;12.83;59.84
32081;BME280;18593;51.426;7.030;2023-03-18T01:42:16;99826.22;;;12.83;59.78
32081;BME280;18593;51.426;7.030;2023-03-18T01:44:44;99832.59;;;12.82;59.53
32081;BME280;18593;51.426;7.030;2023-03-18T01:47:12;99834.25;;;12.83;59.65
32081;BME280;18593;51.426;7.030;2023-03-18T01:49:46;99841.69;;;12.81;59.86
32081;BME280;18593;51.426;7.030;2023-03-18T01:52:20;99838.75;;;12.83;59.86
32081;BME280;18593;51.426;7.030;2023-03-18T01:54:51;99837.97;;;12.82;60.01
32081;BME280;18593;51.426;7.030;2023-03-18T01:57:21;99837.16;;;12.82;60.00
32081;BME280;18593;51.426;7.030;2023-03-18T01:59:51;99844.13;;;12.83;60.38
32081;BME280;18593;51.426;7.030;2023-03-18T02:02:19;99847.63;;;12.83;60.47
32081;BME280;18593;51.426;7.030;2023-03-18T02:04:49;99847.38;;;12.85;60.64
32081;BME280;18593;51.426;7.030;2023-03-18T02:07:22;99843.09;;;12.84;60.58
32081;BME280;18593;51.426;7.030;2023-03-18T02:09:51;99834.00;;;12.85;61.18
32081;BME280;18593;51.426;7.030;2023-03-18T02:12:23;99838.28;;;12.86;61.24
32081;BME280;18593;51.426;7.030;2023-03-18T02:14:56;99826.78;;;12.85;60.40
32081;BME280;18593;51.426;7.030;2023-03-18T02:17:28;99828.41;;;12.86;60.41
32081;BME280;18593;51.426;7.030;2023-03-18T02:20:11;99826.31;;;12.88;60.45
32081;BME280;18593;51.426;7.030;2023-03-18T02:22:48;99822.56;;;12.89;60.15
32081;BME280;18593;51.426;7.030;2023-03-18T02:25:35;99813.72;;;12.89;60.64
32081;BME280;18593;51.426;7.030;2023-03-18T02:28:08;99812.94;;;12.88;61.35
32081;BME280;18593;51.426;7.030;2023-03-18T02:30:40;99815.59;;;12.88;60.94
32081;BME280;18593;51.426;7.030;2023-03-18T02:33:10;99814.53;;;12.89;60.38
32081;BME280;18593;51.426;7.030;2023-03-18T02:35:38;99812.41;;;12.92;60.26
32081;BME280;18593;51.426;7.030;2023-03-18T02:38:06;99809.75;;;12.92;60.69
32081;BME280;18593;51.426;7.030;2023-03-18T02:40:36;99815.09;;;12.92;61.63
32081;BME280;18593;51.426;7.030;2023-03-18T02:43:20;99819.66;;;12.91;60.77
32081;BME280;18593;51.426;7.030;2023-03-18T02:46:22;99830.34;;;12.91;60.95
32081;BME280;18593;51.426;7.030;2023-03-18T02:48:53;99828.72;;;12.90;60.61
32081;BME280;18593;51.426;7.030;2023-03-18T02:51:22;99822.56;;;12.89;60.31
32081;BME280;18593;51.426;7.030;2023-03-18T02:53:50;99832.47;;;12.89;60.14
32081;BME280;18593;51.426;7.030;2023-03-18T02:56:18;99824.66;;;12.87;60.29
32081;BME280;18593;51.426;7.030;2023-03-18T02:58:46;99826.78;;;12.85;60.51
32081;BME280;18593;51.426;7.030;2023-03-18T03:01:14;99835.06;;;12.84;60.62
32081;BME280;18593;51.426;7.030;2023-03-18T03:03:42;99836.34;;;12.81;61.00
32081;BME280;18593;51.426;7.030;2023-03-18T03:06:11;99832.31;;;12.79;60.84
32081;BME280;18593;51.426;7.030;2023-03-18T03:08:38;99843.22;;;12.77;60.95
32081;BME280;18593;51.426;7.030;2023-03-18T03:11:06;99846.41;;;12.74;61.21
32081;BME280;18593;51.426;7.030;2023-03-18T03:13:37;99854.88;;;12.71;61.21
32081;BME280;18593;51.426;7.030;2023-03-18T03:16:09;99857.81;;;12.70;61.13
32081;BME280;18593;51.426;7.030;2023-03-18T03:18:37;99852.69;;;12.68;61.12
32081;BME280;18593;51.426;7.030;2023-03-18T03:21:05;99851.06;;;12.67;61.59
32081;BME280;18593;51.426;7.030;2023-03-18T03:23:33;99845.38;;;12.63;61.55
32081;BME280;18593;51.426;7.030;2023-03-18T03:26:02;99849.69;;;12.65;61.46
32081;BME280;18593;51.426;7.030;2023-03-18T03:28:30;99851.78;;;12.62;62.01
32081;BME280;18593;51.426;7.030;2023-03-18T03:30:58;99847.50;;;12.61;61.99
32081;BME280;18593;51.426;7.030;2023-03-18T03:33:27;99857.38;;;12.61;61.89
32081;BME280;18593;51.426;7.030;2023-03-18T03:35:56;99852.28;;;12.59;62.36
32081;BME280;18593;51.426;7.030;2023-03-18T03:38:25;99848.78;;;12.59;62.12
32081;BME280;18593;51.426;7.030;2023-03-18T03:40:54;99850.88;;;12.57;61.85
32081;BME280;18593;51.426;7.030;2023-03-18T03:43:21;99850.06;;;12.56;62.00
32081;BME280;18593;51.426;7.030;2023-03-18T03:45:48;99854.63;;;12.56;62.08
32081;BME280;18593;51.426;7.030;2023-03-18T03:48:16;99847.06;;;12.53;62.26
32081;BME280;18593;51.426;7.030;2023-03-18T03:50:44;99863.34;;;12.51;62.24
32081;BME280;18593;51.426;7.030;2023-03-18T03:53:12;99864.16;;;12.52;62.40
32081;BME280;18593;51.426;7.030;2023-03-18T03:55:39;99860.13;;;12.49;62.29
32081;BME280;18593;51.426;7.030;2023-03-18T03:58:07;99858.72;;;12.47;62.62
32081;BME280;18593;51.426;7.030;2023-03-18T04:00:35;99868.38;;;12.48;62.55
32081;BME280;18593;51.426;7.030;2023-03-18T04:03:03;99872.34;;;12.45;62.63
32081;BME280;18593;51.426;7.030;2023-03-18T04:05:30;99878.72;;;12.44;62.79
32081;BME280;18593;51.426;7.030;2023-03-18T04:08:01;99880.03;;;12.42;62.74
32081;BME280;18593;51.426;7.030;2023-03-18T04:10:36;99885.38;;;12.42;62.94
32081;BME280;18593;51.426;7.030;2023-03-18T04:13:06;99882.94;;;12.40;62.83
32081;BME280;18593;51.426;7.030;2023-03-18T04:15:34;99880.47;;;12.38;63.06
32081;BME280;18593;51.426;7.030;2023-03-18T04:18:07;99882.94;;;12.40;63.05
32081;BME280;18593;51.426;7.030;2023-03-18T04:20:37;99882.94;;;12.40;64.17
32081;BME280;18593;51.426;7.030;2023-03-18T04:23:14;99892.00;;;12.39;63.85
32081;BME280;18593;51.426;7.030;2023-03-18T04:25:41;99892.00;;;12.39;63.61
32081;BME280;18593;51.426;7.030;2023-03-18T04:28:08;99892.00;;;12.39;64.85
32081;BME280;18593;51.426;7.030;2023-03-18T04:30:36;99897.59;;;12.37;64.69
32081;BME280;18593;51.426;7.030;2023-03-18T04:33:08;99900.25;;;12.37;64.35
32081;BME280;18593;51.426;7.030;2023-03-18T04:35:38;99903.75;;;12.38;64.10
32081;BME280;18593;51.426;7.030;2023-03-18T04:38:07;99897.59;;;12.37;63.87
32081;BME280;18593;51.426;7.030;2023-03-18T04:40:36;99900.00;;;12.39;64.33
32081;BME280;18593;51.426;7.030;2023-03-18T04:43:03;99905.59;;;12.37;65.25
32081;BME280;18593;51.426;7.030;2023-03-18T04:45:32;99908.28;;;12.37;65.69
32081;BME280;18593;51.426;7.030;2023-03-18T04:48:00;99900.25;;;12.37;66.12
32081;BME280;18593;51.426;7.030;2023-03-18T04:50:32;99904.56;;;12.38;65.86
32081;BME280;18593;51.426;7.030;2023-03-18T04:53:00;99910.50;;;12.41;65.32
32081;BME280;18593;51.426;7.030;2023-03-18T04:55:29;99911.31;;;12.41;65.48
32081;BME280;18593;51.426;7.030;2023-03-18T04:58:00;99909.69;;;12.40;66.63
32081;BME280;18593;51.426;7.030;2023-03-18T05:00:30;99913.97;;;12.41;67.21
32081;BME280;18593;51.426;7.030;2023-03-18T05:03:11;99913.72;;;12.43;66.06
32081;BME280;18593;51.426;7.030;2023-03-18T05:05:39;99912.91;;;12.42;65.60
32081;BME280;18593;51.426;7.030;2023-03-18T05:08:09;99910.00;;;12.44;66.00
32081;BME280;18593;51.426;7.030;2023-03-18T05:10:37;99911.06;;;12.43;66.31
32081;BME280;18593;51.426;7.030;2023-03-18T05:13:08;99910.00;;;12.44;66.41
32081;BME280;18593;51.426;7.030;2023-03-18T05:15:36;99920.13;;;12.42;67.00
32081;BME280;18593;51.426;7.030;2023-03-18T05:18:03;99922.56;;;12.43;66.03
32081;BME280;18593;51.426;7.030;2023-03-18T05:20:31;99928.50;;;12.45;67.12
32081;BME280;18593;51.426;7.030;2023-03-18T05:22:59;99929.53;;;12.44;67.18
32081;BME280;18593;51.426;7.030;2023-03-18T05:25:40;99924.44;;;12.43;67.17
32081;BME280;18593;51.426;7.030;2023-03-18T05:28:09;99932.00;;;12.46;66.14
32081;BME280;18593;51.426;7.030;2023-03-18T05:30:45;99931.19;;;12.45;66.19
32081;BME280;18593;51.426;7.030;2023-03-18T05:33:14;99926.63;;;12.46;66.79
32081;BME280;18593;51.426;7.030;2023-03-18T05:35:52;99919.44;;;12.46;67.23
32081;BME280;18593;51.426;7.030;2023-03-18T05:38:24;99921.28;;;12.46;67.39
32081;BME280;18593;51.426;7.030;2023-03-18T05:40:52;99925.03;;;12.45;67.55
32081;BME280;18593;51.426;7.030;2023-03-18T05:43:26;99929.31;;;12.46;67.33
32081;BME280;18593;51.426;7.030;2023-03-18T05:45:56;99927.22;;;12.48;66.79
32081;BME280;18593;51.426;7.030;2023-03-18T05:48:53;99935.47;;;12.46;67.08
32081;BME280;18593;51.426;7.030;2023-03-18T05:51:23;99944.31;;;12.47;67.11
32081;BME280;18593;51.426;7.030;2023-03-18T05:53:52;99950.22;;;12.49;67.82
32081;BME280;18593;51.426;7.030;2023-03-18T05:56:26;99950.72;;;12.46;67.54
32081;BME280;18593;51.426;7.030;2023-03-18T05:58:59;99944.31;;;12.47;67.34
32081;BME280;18593;51.426;7.030;2023-03-18T06:01:37;99948.59;;;12.48;66.98
32081;BME280;18593;51.426;7.030;2023-03-18T06:04:05;99958.75;;;12.46;67.41
32081;BME280;18593;51.426;7.030;2023-03-18T06:06:34;99959.53;;;12.46;67.04
32081;BME280;18593;51.426;7.030;2023-03-18T06:09:02;99959.53;;;12.46;67.18
32081;BME280;18593;51.426;7.030;2023-03-18T06:11:30;99961.63;;;12.44;68.08
32081;BME280;18593;51.426;7.030;2023-03-18T06:13:58;99962.94;;;12.42;67.75
32081;BME280;18593;51.426;7.030;2023-03-18T06:16:26;99958.13;;;12.44;67.06
32081;BME280;18593;51.426;7.030;2023-03-18T06:18:54;99966.75;;;12.46;66.58
32081;BME280;18593;51.426;7.030;2023-03-18T06:21:22;99971.31;;;12.45;67.30
32081;BME280;18593;51.426;7.030;2023-03-18T06:23:50;99972.09;;;12.46;66.60
32081;BME280;18593;51.426;7.030;2023-03-18T06:26:17;99980.69;;;12.48;67.45
32081;BME280;18593;51.426;7.030;2023-03-18T06:28:47;99978.28;;;12.46;67.34
32081;BME280;18593;51.426;7.030;2023-03-18T06:31:17;99979.06;;;12.47;67.12
32081;BME280;18593;51.426;7.030;2023-03-18T06:33:44;99974.19;;;12.44;67.57
32081;BME280;18593;51.426;7.030;2023-03-18T06:36:14;99974.78;;;12.46;67.32
32081;BME280;18593;51.426;7.030;2023-03-18T06:38:48;99987.66;;;12.49;66.92
32081;BME280;18593;51.426;7.030;2023-03-18T06:41:16;99998.38;;;12.49;67.44
32081;BME280;18593;51.426;7.030;2023-03-18T06:43:56;99996.19;;;12.46;67.54
32081;BME280;18593;51.426;7.030;2023-03-18T06:50:16;99991.41;;;12.48;67.52
32081;BME280;18593;51.426;7.030;2023-03-18T06:52:46;99993.00;;;12.49;67.60
32081;BME280;18593;51.426;7.030;2023-03-18T06:55:17;99994.66;;;12.50;67.63
32081;BME280;18593;51.426;7.030;2023-03-18T06:57:45;99989.31;;;12.50;67.68
32081;BME280;18593;51.426;7.030;2023-03-18T07:00:18;99993.00;;;12.49;68.21
32081;BME280;18593;51.426;7.030;2023-03-18T07:02:52;99996.28;;;12.51;67.70
32081;BME280;18593;51.426;7.030;2023-03-18T07:05:23;99988.81;;;12.53;67.38
32081;BME280;18593;51.426;7.030;2023-03-18T07:07:51;99995.78;;;12.54;67.59
32081;BME280;18593;51.426;7.030;2023-03-18T07:10:25;99994.78;;;12.55;67.69
32081;BME280;18593;51.426;7.030;2023-03-18T07:12:58;100002.56;;;12.56;66.98
32081;BME280;18593;51.426;7.030;2023-03-18T07:15:26;100009.28;;;12.59;67.19
32081;BME280;18593;51.426;7.030;2023-03-18T07:17:57;100004.97;;;12.58;67.88
32081;BME280;18593;51.426;7.030;2023-03-18T07:20:25;100006.84;;;12.57;67.83
32081;BME280;18593;51.426;7.030;2023-03-18T07:22:53;100005.78;;;12.58;67.13
32081;BME280;18593;51.426;7.030;2023-03-18T07:25:20;100011.75;;;12.60;67.03
32081;BME280;18593;51.426;7.030;2023-03-18T07:27:48;100011.50;;;12.62;67.64
32081;BME280;18593;51.426;7.030;2023-03-18T07:30:17;100012.91;;;12.65;68.80
32081;BME280;18593;51.426;7.030;2023-03-18T07:32:46;100009.72;;;12.68;69.01
32081;BME280;18593;51.426;7.030;2023-03-18T07:35:16;100003.09;;;12.70;69.18
32081;BME280;18593;51.426;7.030;2023-03-18T07:37:43;100018.22;;;12.76;69.23
32081;BME280;18593;51.426;7.030;2023-03-18T07:40:11;100020.75;;;12.83;69.30
32081;BME280;18593;51.426;7.030;2023-03-18T07:42:39;100019.00;;;12.88;68.60
32081;BME280;18593;51.426;7.030;2023-03-18T07:45:08;100021.78;;;12.94;68.52
32081;BME280;18593;51.426;7.030;2023-03-18T07:47:36;100026.19;;;13.00;68.50
32081;BME280;18593;51.426;7.030;2023-03-18T07:50:04;100020.66;;;13.06;68.09
32081;BME280;18593;51.426;7.030;2023-03-18T07:52:33;100026.72;;;13.13;68.36
32081;BME280;18593;51.426;7.030;2023-03-18T07:55:00;100020.16;;;13.21;68.06
32081;BME280;18593;51.426;7.030;2023-03-18T07:57:28;100036.44;;;13.31;68.74
32081;BME280;18593;51.426;7.030;2023-03-18T07:59:56;100032.31;;;13.40;68.18
32081;BME280;18593;51.426;7.030;2023-03-18T08:02:23;100030.88;;;13.50;67.89
32081;BME280;18593;51.426;7.030;2023-03-18T08:05:16;100038.28;;;13.59;67.26
32081;BME280;18593;51.426;7.030;2023-03-18T08:07:46;100040.78;;;13.66;67.42
32081;BME280;18593;51.426;7.030;2023-03-18T08:10:13;100040.41;;;13.74;67.13
32081;BME280;18593;51.426;7.030;2023-03-18T08:12:41;100046.91;;;13.78;66.31
32081;BME280;18593;51.426;7.030;2023-03-18T08:15:09;100040.34;;;13.86;66.80
32081;BME280;18593;51.426;7.030;2023-03-18T08:17:37;100047.97;;;13.94;66.59
32081;BME280;18593;51.426;7.030;2023-03-18T08:20:06;100043.03;;;14.03;66.25
32081;BME280;18593;51.426;7.030;2023-03-18T08:22:33;100044.72;;;14.09;66.34
32081;BME280;18593;51.426;7.030;2023-03-18T08:25:02;100049.69;;;14.17;65.71
32081;BME280;18593;51.426;7.030;2023-03-18T08:27:29;100051.03;;;14.20;64.82
32081;BME280;18593;51.426;7.030;2023-03-18T08:29:56;100051.38;;;14.23;65.18
32081;BME280;18593;51.426;7.030;2023-03-18T08:32:23;100052.09;;;14.35;66.46
32081;BME280;18593;51.426;7.030;2023-03-18T08:34:52;100060.31;;;14.46;64.97
32081;BME280;18593;51.426;7.030;2023-03-18T08:37:20;100051.84;;;14.54;64.67
32081;BME280;18593;51.426;7.030;2023-03-18T08:39:47;100063.91;;;14.51;62.65
32081;BME280;18593;51.426;7.030;2023-03-18T08:42:15;100064.59;;;14.47;63.70
32081;BME280;18593;51.426;7.030;2023-03-18T08:44:43;100072.44;;;14.48;63.53
32081;BME280;18593;51.426;7.030;2023-03-18T08:47:11;100082.94;;;14.50;64.48
32081;BME280;18593;51.426;7.030;2023-03-18T08:49:38;100072.28;;;14.55;64.29
32081;BME280;18593;51.426;7.030;2023-03-18T08:52:05;100077.94;;;14.58;63.15
32081;BME280;18593;51.426;7.030;2023-03-18T08:54:32;100077.06;;;14.53;63.20
32081;BME280;18593;51.426;7.030;2023-03-18T08:57:00;100074.78;;;14.45;62.31
32081;BME280;18593;51.426;7.030;2023-03-18T08:59:28;100073.88;;;14.39;63.08
32081;BME280;18593;51.426;7.030;2023-03-18T09:01:56;100071.78;;;14.41;64.05
32081;BME280;18593;51.426;7.030;2023-03-18T09:04:23;100070.63;;;14.37;62.64
32081;BME280;18593;51.426;7.030;2023-03-18T09:06:50;100074.38;;;14.36;63.21
32081;BME280;18593;51.426;7.030;2023-03-18T09:09:17;100080.56;;;14.36;62.61
32081;BME280;18593;51.426;7.030;2023-03-18T09:11:45;100075.44;;;14.35;62.84
32081;BME280;18593;51.426;7.030;2023-03-18T09:14:13;100080.22;;;14.33;62.04
32081;BME280;18593;51.426;7.030;2023-03-18T09:16:42;100081.03;;;14.33;63.34
32081;BME280;18593;51.426;7.030;2023-03-18T09:19:10;100075.66;;;14.33;62.93
32081;BME280;18593;51.426;7.030;2023-03-18T09:21:38;100080.81;;;14.35;61.92
32081;BME280;18593;51.426;7.030;2023-03-18T09:24:05;100079.41;;;14.32;62.58
32081;BME280;18593;51.426;7.030;2023-03-18T09:26:32;100082.09;;;14.32;63.02
32081;BME280;18593;51.426;7.030;2023-03-18T09:28:59;100094.44;;;14.33;63.23
32081;BME280;18593;51.426;7.030;2023-03-18T09:31:26;100079.75;;;14.36;62.57
32081;BME280;18593;51.426;7.030;2023-03-18T09:33:55;100081.09;;;14.38;63.25
32081;BME280;18593;51.426;7.030;2023-03-18T09:36:22;100091.69;;;14.45;62.44
32081;BME280;18593;51.426;7.030;2023-03-18T09:38:49;100083.97;;;14.49;62.23
32081;BME280;18593;51.426;7.030;2023-03-18T09:41:27;100086.88;;;14.47;62.19
32081;BME280;18593;51.426;7.030;2023-03-18T09:44:11;100079.09;;;14.46;62.33
32081;BME280;18593;51.426;7.030;2023-03-18T09:47:09;100086.00;;;14.41;61.69
32081;BME280;18593;51.426;7.030;2023-03-18T09:49:50;100080.16;;;14.45;62.19
32081;BME280;18593;51.426;7.030;2023-03-18T09:55:01;100082.94;;;14.50;61.47
32081;BME280;18593;51.426;7.030;2023-03-18T09:57:34;100081.13;;;14.55;62.00
32081;BME280;18593;51.426;7.030;2023-03-18T10:00:05;100090.06;;;14.61;62.29
32081;BME280;18593;51.426;7.030;2023-03-18T10:02:40;100081.50;;;14.64;61.48
32081;BME280;18593;51.426;7.030;2023-03-18T10:05:15;100083.16;;;14.65;61.48
32081;BME280;18593;51.426;7.030;2023-03-18T10:07:47;100084.03;;;14.71;61.06
32081;BME280;18593;51.426;7.030;2023-03-18T10:10:23;100081.88;;;14.73;60.52
32081;BME280;18593;51.426;7.030;2023-03-18T10:12:59;100087.91;;;14.80;60.97
32081;BME280;18593;51.426;7.030;2023-03-18T10:15:33;100088.72;;;14.80;59.65
32081;BME280;18593;51.426;7.030;2023-03-18T10:18:10;100084.47;;;14.84;60.13
32081;BME280;18593;51.426;7.030;2023-03-18T10:20:52;100097.44;;;14.92;61.16
32081;BME280;18593;51.426;7.030;2023-03-18T10:23:30;100083.00;;;14.93;59.38
32081;BME280;18593;51.426;7.030;2023-03-18T10:26:11;100085.75;;;14.99;60.28
32081;BME280;18593;51.426;7.030;2023-03-18T10:29:12;100080.66;;;15.02;60.93
32081;BME280;18593;51.426;7.030;2023-03-18T10:31:57;100081.47;;;15.03;60.01
32081;BME280;18593;51.426;7.030;2023-03-18T10:34:45;100077.22;;;15.07;59.13
32081;BME280;18593;51.426;7.030;2023-03-18T10:37:31;100090.72;;;15.12;58.26
32081;BME280;18593;51.426;7.030;2023-03-18T10:40:09;100090.22;;;15.15;58.92
32081;BME280;18593;51.426;7.030;2023-03-18T10:42:37;100086.78;;;15.19;59.27
32081;BME280;18593;51.426;7.030;2023-03-18T10:45:15;100085.97;;;15.19;58.75
32081;BME280;18593;51.426;7.030;2023-03-18T10:47:52;100093.78;;;15.20;59.50
32081;BME280;18593;51.426;7.030;2023-03-18T10:50:29;100092.22;;;15.25;60.01
32081;BME280;18593;51.426;7.030;2023-03-18T10:53:06;100095.22;;;15.28;58.51
32081;BME280;18593;51.426;7.030;2023-03-18T10:55:48;100080.16;;;15.27;58.38
32081;BME280;18593;51.426;7.030;2023-03-18T10:58:19;100074.78;;;15.27;58.04
32081;BME280;18593;51.426;7.030;2023-03-18T11:00:46;100084.47;;;15.28;58.94
32081;BME280;18593;51.426;7.030;2023-03-18T11:03:23;100077.47;;;15.27;57.92
32081;BME280;18593;51.426;7.030;2023-03-18T11:05:52;100066.72;;;15.27;58.05
32081;BME280;18593;51.426;7.030;2023-03-18T11:08:34;100076.66;;;15.27;57.27
32081;BME280;18593;51.426;7.030;2023-03-18T11:11:25;100065.91;;;15.27;57.97
32081;BME280;18593;51.426;7.030;2023-03-18T11:13:54;100062.97;;;15.28;57.06
32081;BME280;18593;51.426;7.030;2023-03-18T11:16:32;100064.03;;;15.27;57.03
32081;BME280;18593;51.426;7.030;2023-03-18T11:22:03;100057.34;;;15.30;57.16
32081;BME280;18593;51.426;7.030;2023-03-18T11:24:33;100055.78;;;15.34;57.40
32081;BME280;18593;51.426;7.030;2023-03-18T11:27:25;100063.03;;;15.33;56.36
32081;BME280;18593;51.426;7.030;2023-03-18T11:29:56;100061.97;;;15.34;56.61
32081;BME280;18593;51.426;7.030;2023-03-18T11:32:27;100070.56;;;15.36;56.37
32081;BME280;18593;51.426;7.030;2023-03-18T11:34:56;100072.50;;;15.41;54.91
32081;BME280;18593;51.426;7.030;2023-03-18T11:37:31;100066.94;;;15.48;56.38
32081;BME280;18593;51.426;7.030;2023-03-18T11:40:26;100068.03;;;15.52;56.79
32081;BME280;18593;51.426;7.030;2023-03-18T11:42:56;100067.19;;;15.68;55.24
32081;BME280;18593;51.426;7.030;2023-03-18T11:45:44;100066.41;;;15.73;54.83
32081;BME280;18593;51.426;7.030;2023-03-18T11:48:18;100058.34;;;15.73;54.69
32081;BME280;18593;51.426;7.030;2023-03-18T11:51:13;100063.72;;;15.73;54.62
32081;BME280;18593;51.426;7.030;2023-03-18T11:56:43;100071.03;;;15.77;55.04
32081;BME280;18593;51.426;7.030;2023-03-18T11:59:47;100074.03;;;15.86;55.15
32081;BME280;18593;51.426;7.030;2023-03-18T12:06:04;100072.00;;;15.98;54.49
32081;BME280;18593;51.426;7.030;2023-03-18T12:08:49;100076.56;;;15.98;53.92
32081;BME280;18593;51.426;7.030;2023-03-18T12:11:22;100063.13;;;15.98;54.56
32081;BME280;18593;51.426;7.030;2023-03-18T12:14:01;100052.09;;;15.99;54.44
32081;BME280;18593;51.426;7.030;2023-03-18T12:16:43;100056.38;;;15.95;54.70
32081;BME280;18593;51.426;7.030;2023-03-18T12:19:45;100054.78;;;15.99;53.28
32081;BME280;18593;51.426;7.030;2023-03-18T12:22:37;100062.09;;;16.04;53.21
32081;BME280;18593;51.426;7.030;2023-03-18T12:28:46;100055.97;;;16.13;53.21
32081;BME280;18593;51.426;7.030;2023-03-18T12:34:37;100061.94;;;16.15;53.55
32081;BME280;18593;51.426;7.030;2023-03-18T12:37:22;100065.94;;;16.13;53.09
32081;BME280;18593;51.426;7.030;2023-03-18T12:40:22;100054.91;;;16.14;53.02
32081;BME280;18593;51.426;7.030;2023-03-18T12:43:15;100057.06;;;16.12;53.49
32081;BME280;18593;51.426;7.030;2023-03-18T12:45:51;100049.50;;;16.09;53.56
32081;BME280;18593;51.426;7.030;2023-03-18T12:48:24;100051.16;;;16.15;54.13
32081;BME280;18593;51.426;7.030;2023-03-18T12:50:58;100047.13;;;16.18;53.20
32081;BME280;18593;51.426;7.030;2023-03-18T12:53:32;100049.56;;;16.19;52.37
32081;BME280;18593;51.426;7.030;2023-03-18T12:56:04;100047.44;;;16.21;53.20
32081;BME280;18593;51.426;7.030;2023-03-18T12:58:38;100037.47;;;16.22;51.19
32081;BME280;18593;51.426;7.030;2023-03-18T13:01:13;100033.97;;;16.21;51.70
32081;BME280;18593;51.426;7.030;2023-03-18T13:03:48;100040.69;;;16.19;52.12
32081;BME280;18593;51.426;7.030;2023-03-18T13:06:22;100034.75;;;16.17;51.39
32081;BME280;18593;51.426;7.030;2023-03-18T13:09:02;100041.75;;;16.18;51.70
32081;BME280;18593;51.426;7.030;2023-03-18T13:12:03;100026.69;;;16.17;51.62
32081;BME280;18593;51.426;7.030;2023-03-18T13:14:48;100029.91;;;16.19;52.46
32081;BME280;18593;51.426;7.030;2023-03-18T13:17:23;100025.06;;;16.16;51.63
32081;BME280;18593;51.426;7.030;2023-03-18T13:19:58;100028.81;;;16.15;51.98
32081;BME280;18593;51.426;7.030;2023-03-18T13:22:51;100032.56;;;16.14;51.61
32081;BME280;18593;51.426;7.030;2023-03-18T13:25:33;100036.38;;;16.18;51.34
32081;BME280;18593;51.426;7.030;2023-03-18T13:28:41;100030.72;;;16.19;51.73
32081;BME280;18593;51.426;7.030;2023-03-18T13:31:21;100024.06;;;16.27;52.25
32081;BME280;18593;51.426;7.030;2023-03-18T13:37:59;100020.59;;;16.32;50.58
32081;BME280;18593;51.426;7.030;2023-03-18T13:40:55;100014.63;;;16.30;50.56
32081;BME280;18593;51.426;7.030;2023-03-18T13:43:29;100014.38;;;16.26;50.38
32081;BME280;18593;51.426;7.030;2023-03-18T13:46:01;100007.38;;;16.25;50.95
32081;BME280;18593;51.426;7.030;2023-03-18T13:48:30;100016.50;;;16.24;50.72